Welcome to Northern Hawkes Bay. New Zealand.
PWS Header
      nz Flag



Hit Counter


W3C Valid W3C Valid logo


    Wairoa

Select any of the Stations below to visit their websites.










Historic Data from Weather Underground
Select the location of interest below. Wairoa is the default. Please have patience, this Data is slow to load in.
Northern Hawkes Bay Historical Data
Daily Summary for February 13, 2018 Units:  Metric    English   Both
« Previous Day
Next Day »
Daily Weekly Monthly Yearly Custom
  High: Low: Average:
Temperature: 29.0 °C 21.3 °C 24.2 °C
Dew Point: 23.8 °C 21.0 °C 22.2 °C
Humidity: 99% 68% 89%
Wind Speed: 11.1km/h 0.0km/h 0.5km/h
Wind Gust: 15.8km/h - -
Wind- - SW
Pressure: 1013.1 hPa 1010.7 hPa -
Precipitation: 0.3 mm    
Historical Graphs
 
 
Tabular Data for February 13, 2018
Time Temperature Dew Point Pressure Wind Wind Speed Wind Gust Humidity Rainfall Rate (Hourly) solar
00:03 23.9 °C 22.9 °C 1011.7 hPa Calm     94% 0.0 mm 0 W/m2
00:08 23.8 °C 23.0 °C 1011.7 hPa Calm     95% 0.0 mm 0 W/m2
00:13 23.8 °C 23.0 °C 1011.4 hPa Calm     95% 0.0 mm 0 W/m2
00:18 23.7 °C 22.9 °C 1011.4 hPa Calm     95% 0.0 mm 0 W/m2
00:23 23.7 °C 22.9 °C 1011.7 hPa Calm     95% 0.0 mm 0 W/m2
00:28 23.7 °C 22.9 °C 1011.7 hPa Calm     95% 0.0 mm 0 W/m2
00:33 23.6 °C 22.8 °C 1011.7 hPa Calm     95% 0.0 mm 0 W/m2
00:38 23.5 °C 22.7 °C 1011.7 hPa Calm     95% 0.0 mm 0 W/m2
00:43 23.5 °C 22.7 °C 1011.4 hPa Calm     95% 0.0 mm 0 W/m2
00:48 23.5 °C 22.7 °C 1011.7 hPa Calm     95% 0.0 mm 0 W/m2
00:53 23.6 °C 22.8 °C 1011.7 hPa Calm     95% 0.0 mm 0 W/m2
00:58 23.6 °C 22.8 °C 1011.7 hPa Calm     95% 0.0 mm 0 W/m2
01:03 23.6 °C 22.8 °C 1011.7 hPa Calm     95% 0.0 mm 0 W/m2
01:08 23.5 °C 22.7 °C 1011.4 hPa Calm     95% 0.0 mm 0 W/m2
01:13 23.4 °C 22.6 °C 1011.7 hPa Calm     95% 0.0 mm 0 W/m2
01:18 23.3 °C 22.7 °C 1011.7 hPa Calm     96% 0.0 mm 0 W/m2
01:23 23.3 °C 22.7 °C 1011.7 hPa Calm     96% 0.0 mm 0 W/m2
01:28 23.2 °C 22.6 °C 1011.7 hPa Calm     96% 0.0 mm 0 W/m2
01:33 23.2 °C 22.6 °C 1011.4 hPa Calm     96% 0.0 mm 0 W/m2
01:38 23.2 °C 22.6 °C 1011.7 hPa Calm     96% 0.0 mm 0 W/m2
01:43 23.2 °C 22.6 °C 1011.4 hPa Calm     96% 0.0 mm 0 W/m2
01:48 23.2 °C 22.6 °C 1011.4 hPa Calm     96% 0.0 mm 0 W/m2
01:53 23.1 °C 22.6 °C 1011.7 hPa Calm     97% 0.0 mm 0 W/m2
01:58 23.1 °C 22.6 °C 1011.4 hPa Calm     97% 0.0 mm 0 W/m2
02:03 23.0 °C 22.5 °C 1011.4 hPa Calm     97% 0.0 mm 0 W/m2
02:08 23.0 °C 22.5 °C 1011.4 hPa Calm     97% 0.0 mm 0 W/m2
02:13 22.9 °C 22.3 °C 1011.4 hPa Calm     96% 0.0 mm 0 W/m2
02:18 22.9 °C 22.4 °C 1011.4 hPa Calm     97% 0.0 mm 0 W/m2
02:23 22.9 °C 22.4 °C 1011.1 hPa Calm     97% 0.0 mm 0 W/m2
02:28 22.9 °C 22.4 °C 1011.1 hPa Calm     97% 0.0 mm 0 W/m2
02:33 22.9 °C 22.4 °C 1011.1 hPa Calm     97% 0.0 mm 0 W/m2
02:38 22.8 °C 22.3 °C 1011.1 hPa Calm     97% 0.0 mm 0 W/m2
02:43 22.8 °C 22.3 °C 1010.7 hPa Calm     97% 0.0 mm 0 W/m2
02:48 22.7 °C 22.2 °C 1010.7 hPa Calm     97% 0.0 mm 0 W/m2
02:53 22.6 °C 22.1 °C 1010.7 hPa Calm     97% 0.0 mm 0 W/m2
02:58 22.7 °C 22.2 °C 1010.7 hPa Calm     97% 0.0 mm 0 W/m2
03:03 22.7 °C 22.2 °C 1010.7 hPa Calm     97% 0.0 mm 0 W/m2
03:08 22.7 °C 22.2 °C 1010.7 hPa Calm     97% 0.0 mm 0 W/m2
03:13 22.6 °C 22.1 °C 1010.7 hPa Calm     97% 0.0 mm 0 W/m2
03:18 22.6 °C 22.1 °C 1010.7 hPa Calm     97% 0.0 mm 0 W/m2
03:23 22.5 °C 22.0 °C 1010.7 hPa Calm     97% 0.0 mm 0 W/m2
03:28 22.5 °C 22.0 °C 1010.7 hPa Calm     97% 0.0 mm 0 W/m2
03:33 22.5 °C 22.0 °C 1010.7 hPa Calm     97% 0.0 mm 0 W/m2
03:38 22.4 °C 21.9 °C 1010.7 hPa Calm     97% 0.0 mm 0 W/m2
03:43 22.4 °C 21.9 °C 1010.7 hPa Calm     97% 0.0 mm 0 W/m2
03:48 22.4 °C 21.9 °C 1010.7 hPa Calm     97% 0.0 mm 0 W/m2
03:53 22.3 °C 21.8 °C 1010.7 hPa Calm     97% 0.0 mm 0 W/m2
03:58 22.3 °C 21.8 °C 1010.7 hPa Calm     97% 0.0 mm 0 W/m2
04:03 22.2 °C 21.7 °C 1010.7 hPa Calm     97% 0.0 mm 0 W/m2
04:08 22.2 °C 21.7 °C 1010.7 hPa Calm     97% 0.0 mm 0 W/m2
04:13 22.2 °C 21.7 °C 1010.7 hPa Calm     97% 0.0 mm 0 W/m2
04:18 22.2 °C 21.7 °C 1011.1 hPa Calm     97% 0.0 mm 0 W/m2
04:38 21.6 °C 21.3 °C 1011.4 hPa Calm   1.1 km/h 98% 0.0 mm 0 W/m2
04:43 21.6 °C 21.3 °C 1011.4 hPa SSW 1.1 km/h 3.5 km/h 98% 0.0 mm 0 W/m2
04:48 21.6 °C 21.3 °C 1011.4 hPa Calm   6.1 km/h 98% 0.0 mm 0 W/m2
04:53 21.7 °C 21.4 °C 1011.4 hPa Calm   6.1 km/h 98% 0.0 mm 0 W/m2
04:58 21.5 °C 21.2 °C 1011.4 hPa SSE 1.1 km/h 6.1 km/h 98% 0.0 mm 0 W/m2
05:03 21.5 °C 21.2 °C 1011.1 hPa Calm   3.5 km/h 98% 0.0 mm 0 W/m2
05:08 21.5 °C 21.2 °C 1011.1 hPa Calm   3.5 km/h 98% 0.0 mm 0 W/m2
05:13 21.5 °C 21.2 °C 1011.4 hPa Calm   3.5 km/h 98% 0.0 mm 0 W/m2
05:18 21.5 °C 21.2 °C 1011.4 hPa Calm     98% 0.0 mm 0 W/m2
05:23 21.5 °C 21.2 °C 1011.7 hPa Calm     98% 0.0 mm 0 W/m2
05:28 21.5 °C 21.2 °C 1011.7 hPa Calm   3.5 km/h 98% 0.0 mm 0 W/m2
05:33 21.6 °C 21.3 °C 1011.7 hPa Calm   3.5 km/h 98% 0.0 mm 0 W/m2
05:38 21.6 °C 21.3 °C 1011.7 hPa Calm   1.1 km/h 98% 0.0 mm 0 W/m2
05:43 21.6 °C 21.3 °C 1012.1 hPa Calm     98% 0.0 mm 0 W/m2
05:48 21.6 °C 21.3 °C 1011.7 hPa Calm     98% 0.0 mm 0 W/m2
05:53 21.7 °C 21.4 °C 1012.1 hPa Calm   1.1 km/h 98% 0.0 mm 0 W/m2
05:58 21.7 °C 21.4 °C 1012.1 hPa Calm   1.1 km/h 98% 0.0 mm 0 W/m2
06:03 21.7 °C 21.4 °C 1012.1 hPa Calm   1.1 km/h 98% 0.0 mm 0 W/m2
06:08 21.7 °C 21.4 °C 1012.1 hPa Calm     98% 0.0 mm 0 W/m2
06:13 21.5 °C 21.2 °C 1012.1 hPa Calm     98% 0.0 mm 0 W/m2
06:18 21.5 °C 21.2 °C 1012.1 hPa Calm     98% 0.0 mm 0 W/m2
06:23 21.4 °C 21.1 °C 1012.1 hPa Calm     98% 0.0 mm 0 W/m2
06:28 21.4 °C 21.1 °C 1012.1 hPa Calm     98% 0.0 mm 0 W/m2
06:33 21.4 °C 21.1 °C 1012.1 hPa Calm     98% 0.0 mm 0 W/m2
06:38 21.3 °C 21.0 °C 1012.4 hPa Calm     98% 0.0 mm 0 W/m2
06:43 21.4 °C 21.1 °C 1012.1 hPa Calm     98% 0.0 mm 3 W/m2
06:48 21.4 °C 21.1 °C 1011.7 hPa Calm     98% 0.0 mm 5 W/m2
06:53 21.5 °C 21.2 °C 1011.7 hPa Calm     98% 0.0 mm 10 W/m2
06:58 21.5 °C 21.2 °C 1011.7 hPa Calm   1.1 km/h 98% 0.0 mm 18 W/m2
07:03 21.6 °C 21.3 °C 1011.7 hPa Calm   1.1 km/h 98% 0.0 mm 20 W/m2
07:08 21.7 °C 21.4 °C 1011.7 hPa Calm   2.6 km/h 98% 0.0 mm 16 W/m2
07:13 21.8 °C 21.5 °C 1012.1 hPa Calm   2.6 km/h 98% 0.0 mm 11 W/m2
07:18 21.8 °C 21.5 °C 1012.1 hPa Calm   3.5 km/h 98% 0.3 mm 11 W/m2
07:23 21.8 °C 21.5 °C 1012.4 hPa Calm   3.5 km/h 98% 0.3 mm 12 W/m2
07:29 21.8 °C 21.5 °C 1012.4 hPa Calm   1.1 km/h 98% 0.3 mm 16 W/m2
07:35 21.8 °C 21.5 °C 1012.4 hPa Calm   1.1 km/h 98% 0.3 mm 18 W/m2
07:40 21.8 °C 21.5 °C 1012.4 hPa Calm   1.1 km/h 98% 0.3 mm 19 W/m2
07:45 21.9 °C 21.6 °C 1012.4 hPa Calm     98% 0.3 mm 20 W/m2
07:50 21.9 °C 21.6 °C 1012.4 hPa Calm     98% 0.3 mm 24 W/m2
07:55 21.9 °C 21.6 °C 1012.1 hPa Calm     98% 0.3 mm 26 W/m2
08:00 22.0 °C 21.5 °C 1012.1 hPa Calm     97% 0.3 mm 25 W/m2
08:05 22.0 °C 21.5 °C 1011.7 hPa Calm     97% 0.3 mm 34 W/m2
08:10 22.1 °C 21.6 °C 1011.7 hPa Calm     97% 0.3 mm 44 W/m2
08:15 22.2 °C 21.7 °C 1011.7 hPa Calm     97% 0.0 mm 47 W/m2
08:20 22.2 °C 21.7 °C 1011.7 hPa Calm     97% 0.0 mm 50 W/m2
08:25 22.2 °C 21.7 °C 1011.7 hPa Calm     97% 0.0 mm 44 W/m2
08:30 22.3 °C 21.8 °C 1011.7 hPa Calm     97% 0.0 mm 45 W/m2
08:35 22.4 °C 21.9 °C 1011.7 hPa Calm     97% 0.0 mm 47 W/m2
08:40 22.5 °C 22.0 °C 1011.7 hPa Calm     97% 0.0 mm 51 W/m2
08:45 22.6 °C 22.1 °C 1011.7 hPa Calm     97% 0.0 mm 59 W/m2
08:50 22.7 °C 22.2 °C 1012.1 hPa Calm     97% 0.0 mm 80 W/m2
08:55 22.9 °C 22.4 °C 1012.1 hPa Calm     97% 0.0 mm 99 W/m2
09:00 23.1 °C 22.9 °C 1012.4 hPa Calm     99% 0.0 mm 103 W/m2
09:05 23.1 °C 22.9 °C 1012.4 hPa Calm   3.5 km/h 99% 0.0 mm 98 W/m2
09:10 23.2 °C 23.1 °C 1012.1 hPa Calm   3.5 km/h 99% 0.0 mm 102 W/m2
09:15 23.4 °C 23.3 °C 1011.7 hPa ENE 1.1 km/h 7.2 km/h 99% 0.0 mm 123 W/m2
09:20 23.6 °C 23.3 °C 1011.7 hPa Calm   7.2 km/h 98% 0.0 mm 134 W/m2
09:26 23.8 °C 23.3 °C 1011.7 hPa Calm   5.0 km/h 97% 0.0 mm 149 W/m2
09:31 24.0 °C 23.2 °C 1011.7 hPa Calm   5.0 km/h 95% 0.0 mm 152 W/m2
09:36 24.2 °C 23.2 °C 1011.4 hPa Calm   5.0 km/h 94% 0.0 mm 128 W/m2
09:41 24.4 °C 23.2 °C 1011.7 hPa Calm   2.6 km/h 93% 0.0 mm 110 W/m2
09:46 24.4 °C 23.2 °C 1011.7 hPa Calm   1.1 km/h 93% 0.0 mm 108 W/m2
09:51 24.4 °C 23.1 °C 1011.7 hPa Calm   1.1 km/h 92% 0.0 mm 91 W/m2
09:56 24.4 °C 22.9 °C 1011.7 hPa Calm   1.1 km/h 91% 0.0 mm 87 W/m2
10:02 24.7 °C 23.2 °C 1012.1 hPa Calm   1.1 km/h 91% 0.0 mm 83 W/m2
10:08 24.9 °C 23.3 °C 1011.7 hPa Calm   1.1 km/h 91% 0.0 mm 85 W/m2
10:13 25.1 °C 23.4 °C 1012.1 hPa Calm     90% 0.0 mm 98 W/m2
10:18 25.1 °C 23.4 °C 1011.7 hPa Calm     90% 0.0 mm 98 W/m2
10:23 25.2 °C 23.5 °C 1012.1 hPa Calm     90% 0.0 mm 102 W/m2
10:28 25.4 °C 23.5 °C 1012.1 hPa Calm     89% 0.0 mm 97 W/m2
10:33 25.5 °C 23.6 °C 1012.4 hPa Calm     89% 0.0 mm 96 W/m2
10:39 25.5 °C 23.2 °C 1012.4 hPa Calm   1.1 km/h 87% 0.0 mm 96 W/m2
10:45 25.4 °C 23.1 °C 1012.4 hPa Calm   1.1 km/h 87% 0.0 mm 111 W/m2
10:50 25.5 °C 23.4 °C 1012.4 hPa Calm   1.1 km/h 88% 0.0 mm 142 W/m2
10:55 25.5 °C 23.2 °C 1012.4 hPa Calm     87% 0.0 mm 171 W/m2
11:00 25.6 °C 23.3 °C 1012.4 hPa Calm     87% 0.0 mm 154 W/m2
11:05 25.9 °C 23.6 °C 1012.4 hPa Calm     87% 0.0 mm 145 W/m2
11:10 25.8 °C 23.5 °C 1012.8 hPa Calm   1.1 km/h 87% 0.0 mm 149 W/m2
11:15 25.7 °C 23.4 °C 1012.4 hPa Calm   1.1 km/h 87% 0.0 mm 129 W/m2
11:20 25.7 °C 23.6 °C 1012.4 hPa Calm   1.1 km/h 88% 0.0 mm 125 W/m2
11:25 25.6 °C 23.5 °C 1012.4 hPa Calm   1.1 km/h 88% 0.0 mm 130 W/m2
11:31 25.4 °C 23.1 °C 1012.4 hPa Calm   5.0 km/h 87% 0.0 mm 159 W/m2
11:36 25.5 °C 23.2 °C 1012.4 hPa North 1.1 km/h 5.0 km/h 87% 0.0 mm 182 W/m2
11:41 25.5 °C 23.2 °C 1012.4 hPa North 2.6 km/h 6.1 km/h 87% 0.0 mm 201 W/m2
11:46 25.5 °C 23.0 °C 1012.4 hPa North 1.1 km/h 9.7 km/h 86% 0.0 mm 241 W/m2
11:51 25.6 °C 23.1 °C 1012.4 hPa Calm   9.7 km/h 86% 0.0 mm 254 W/m2
11:56 25.6 °C 23.1 °C 1012.4 hPa Calm   7.2 km/h 86% 0.0 mm 233 W/m2
12:01 25.8 °C 23.3 °C 1012.4 hPa North 2.6 km/h 8.7 km/h 86% 0.0 mm 200 W/m2
12:21 25.9 °C 23.0 °C 1012.1 hPa North 11.1 km/h 12.2 km/h 84% 0.0 mm 175 W/m2
12:26 26.0 °C 22.9 °C 1012.1 hPa NNW 2.6 km/h 12.2 km/h 83% 0.0 mm 180 W/m2
12:31 26.2 °C 23.1 °C 1012.1 hPa Calm   12.2 km/h 83% 0.0 mm 212 W/m2
12:36 26.2 °C 23.1 °C 1012.1 hPa NNW 2.6 km/h 9.7 km/h 83% 0.0 mm 313 W/m2
12:53 26.9 °C 23.4 °C 1012.1 hPa NNW 3.5 km/h 11.1 km/h 81% 0.0 mm 422 W/m2
12:58 27.0 °C 23.3 °C 1012.4 hPa NNW 8.7 km/h 12.2 km/h 80% 0.0 mm 354 W/m2
13:03 27.0 °C 23.5 °C 1012.1 hPa NW 7.2 km/h 12.2 km/h 81% 0.0 mm 323 W/m2
13:08 27.1 °C 23.6 °C 1012.1 hPa NNW 7.2 km/h 12.2 km/h 81% 0.0 mm 357 W/m2
13:13 27.3 °C 23.8 °C 1012.1 hPa Calm   12.2 km/h 81% 0.0 mm 397 W/m2
13:18 27.6 °C 23.7 °C 1012.1 hPa NW 1.1 km/h 12.2 km/h 79% 0.0 mm 328 W/m2
13:36 28.4 °C 23.3 °C 1012.1 hPa NNW 1.1 km/h 7.2 km/h 74% 0.0 mm 331 W/m2
13:41 28.6 °C 23.3 °C 1012.1 hPa North 2.6 km/h 6.1 km/h 73% 0.0 mm 285 W/m2
13:46 28.3 °C 22.6 °C 1012.1 hPa NNW 1.1 km/h 6.1 km/h 71% 0.0 mm 432 W/m2
13:51 28.4 °C 23.1 °C 1012.1 hPa NNW 1.1 km/h 7.2 km/h 73% 0.0 mm 374 W/m2
13:56 28.4 °C 23.3 °C 1011.7 hPa Calm   7.2 km/h 74% 0.0 mm 353 W/m2
14:01 28.7 °C 23.4 °C 1011.7 hPa Calm   7.2 km/h 73% 0.0 mm 229 W/m2
14:06 29.0 °C 23.2 °C 1011.7 hPa NE 1.1 km/h 3.5 km/h 71% 0.0 mm 237 W/m2
14:11 28.7 °C 22.5 °C 1011.4 hPa NE 5.0 km/h 11.1 km/h 69% 0.0 mm 257 W/m2
14:28 28.4 °C 22.4 °C 1010.7 hPa NE 5.0 km/h 9.7 km/h 70% 0.0 mm 210 W/m2
14:33 28.3 °C 22.3 °C 1010.7 hPa NE 3.5 km/h 12.2 km/h 70% 0.0 mm 219 W/m2
14:38 28.4 °C 22.7 °C 1010.7 hPa NE 5.0 km/h 12.2 km/h 71% 0.0 mm 229 W/m2
14:43 28.4 °C 22.2 °C 1011.1 hPa NE 3.5 km/h 12.2 km/h 69% 0.0 mm 203 W/m2
14:48 28.3 °C 21.8 °C 1011.4 hPa NNE 2.6 km/h 12.2 km/h 68% 0.0 mm 156 W/m2
14:53 28.1 °C 21.7 °C 1011.1 hPa NNW 1.1 km/h 11.1 km/h 68% 0.0 mm 139 W/m2
14:58 28.1 °C 21.7 °C 1011.4 hPa NNW 2.6 km/h 11.1 km/h 68% 0.0 mm 123 W/m2
15:03 27.9 °C 22.2 °C 1011.4 hPa Calm   8.7 km/h 71% 0.0 mm 123 W/m2
15:08 28.0 °C 22.3 °C 1011.4 hPa Calm   8.7 km/h 71% 0.0 mm 124 W/m2
15:13 27.7 °C 22.2 °C 1011.7 hPa NNE 2.6 km/h 7.2 km/h 72% 0.0 mm 130 W/m2
15:18 27.5 °C 22.3 °C 1011.7 hPa Calm   9.7 km/h 73% 0.0 mm 157 W/m2
15:23 27.6 °C 22.6 °C 1012.1 hPa Calm   9.7 km/h 74% 0.0 mm 211 W/m2
15:28 27.8 °C 22.8 °C 1011.7 hPa Calm   5.0 km/h 74% 0.0 mm 214 W/m2
15:33 27.8 °C 22.6 °C 1012.1 hPa Calm   9.7 km/h 73% 0.0 mm 167 W/m2
15:38 27.7 °C 22.2 °C 1012.1 hPa NNW 2.6 km/h 13.4 km/h 72% 0.0 mm 168 W/m2
15:43 27.6 °C 22.3 °C 1012.1 hPa NNW 1.1 km/h 13.4 km/h 73% 0.0 mm 190 W/m2
15:48 27.6 °C 23.0 °C 1012.1 hPa NW 1.1 km/h 7.2 km/h 76% 0.0 mm 204 W/m2
15:53 27.5 °C 23.2 °C 1012.1 hPa Calm   5.0 km/h 77% 0.0 mm 184 W/m2
15:58 27.6 °C 22.8 °C 1012.1 hPa Calm   5.0 km/h 75% 0.0 mm 187 W/m2
16:03 27.6 °C 22.6 °C 1012.1 hPa NNW 1.1 km/h 8.7 km/h 74% 0.0 mm 159 W/m2
16:08 27.5 °C 22.7 °C 1012.1 hPa Calm   8.7 km/h 75% 0.0 mm 147 W/m2
16:13 27.4 °C 22.2 °C 1011.7 hPa NNW 2.6 km/h 15.8 km/h 73% 0.0 mm 204 W/m2
16:18 27.6 °C 22.3 °C 1011.7 hPa NW 5.0 km/h 15.8 km/h 73% 0.0 mm 211 W/m2
16:23 27.7 °C 22.2 °C 1011.4 hPa NNW 6.1 km/h 13.4 km/h 72% 0.0 mm 187 W/m2
16:28 27.6 °C 21.9 °C 1011.4 hPa NNW 6.1 km/h 13.4 km/h 71% 0.0 mm 170 W/m2
16:33 27.6 °C 21.9 °C 1011.4 hPa NW 1.1 km/h 12.2 km/h 71% 0.0 mm 146 W/m2
16:38 27.5 °C 21.8 °C 1011.4 hPa Calm   9.7 km/h 71% 0.0 mm 150 W/m2
16:43 27.5 °C 22.1 °C 1011.4 hPa Calm   9.7 km/h 72% 0.0 mm 152 W/m2
16:48 27.4 °C 21.7 °C 1011.1 hPa NNW 1.1 km/h 9.7 km/h 71% 0.0 mm 147 W/m2
16:53 27.4 °C 21.7 °C 1011.1 hPa Calm   9.7 km/h 71% 0.0 mm 135 W/m2
16:58 27.4 °C 21.7 °C 1010.7 hPa Calm   3.5 km/h 71% 0.0 mm 107 W/m2
17:03 27.4 °C 21.7 °C 1010.7 hPa Calm   3.5 km/h 71% 0.0 mm 111 W/m2
17:08 27.4 °C 21.9 °C 1010.7 hPa Calm   2.6 km/h 72% 0.0 mm 97 W/m2
17:13 27.3 °C 22.1 °C 1011.1 hPa Calm     73% 0.0 mm 80 W/m2
17:18 27.3 °C 22.1 °C 1010.7 hPa Calm   1.1 km/h 73% 0.0 mm 77 W/m2
17:23 27.1 °C 21.7 °C 1010.7 hPa Calm   1.1 km/h 72% 0.0 mm 73 W/m2
17:28 27.1 °C 21.7 °C 1011.1 hPa Calm   1.1 km/h 72% 0.0 mm 80 W/m2
17:33 26.9 °C 21.7 °C 1011.1 hPa NW 2.6 km/h 5.0 km/h 73% 0.0 mm 77 W/m2
17:38 26.8 °C 21.8 °C 1011.4 hPa Calm   5.0 km/h 74% 0.0 mm 65 W/m2
17:43 26.6 °C 21.6 °C 1011.4 hPa Calm   5.0 km/h 74% 0.0 mm 53 W/m2
17:48 26.5 °C 21.5 °C 1011.4 hPa Calm   3.5 km/h 74% 0.0 mm 44 W/m2
17:53 26.3 °C 21.8 °C 1011.7 hPa Calm   6.1 km/h 76% 0.0 mm 40 W/m2
17:58 26.2 °C 22.1 °C 1011.7 hPa Calm   6.1 km/h 78% 0.0 mm 41 W/m2
18:03 26.0 °C 22.1 °C 1011.4 hPa Calm   6.1 km/h 79% 0.0 mm 49 W/m2
18:08 25.9 °C 22.2 °C 1011.4 hPa Calm   6.1 km/h 80% 0.0 mm 59 W/m2
18:13 25.8 °C 22.1 °C 1011.1 hPa Calm   5.0 km/h 80% 0.0 mm 57 W/m2
18:18 25.8 °C 22.3 °C 1011.1 hPa Calm     81% 0.0 mm 48 W/m2
18:23 25.8 °C 22.3 °C 1011.1 hPa Calm     81% 0.0 mm 44 W/m2
18:28 25.6 °C 22.1 °C 1011.1 hPa Calm     81% 0.0 mm 41 W/m2
18:33 25.5 °C 22.2 °C 1010.7 hPa Calm     82% 0.0 mm 36 W/m2
18:38 25.5 °C 22.4 °C 1011.1 hPa Calm     83% 0.0 mm 33 W/m2
18:43 25.4 °C 22.3 °C 1011.1 hPa Calm     83% 0.0 mm 32 W/m2
18:48 25.3 °C 22.6 °C 1011.1 hPa Calm     85% 0.0 mm 36 W/m2
18:53 25.1 °C 22.6 °C 1011.1 hPa Calm     86% 0.0 mm 38 W/m2
18:58 24.9 °C 22.6 °C 1010.7 hPa Calm     87% 0.0 mm 37 W/m2
19:03 24.8 °C 22.5 °C 1010.7 hPa Calm   1.1 km/h 87% 0.0 mm 33 W/m2
19:08 24.5 °C 22.1 °C 1011.1 hPa Calm   1.1 km/h 86% 0.0 mm 30 W/m2
19:13 24.5 °C 22.1 °C 1011.1 hPa Calm   1.1 km/h 86% 0.0 mm 33 W/m2
19:18 24.5 °C 22.1 °C 1010.7 hPa Calm   1.1 km/h 86% 0.0 mm 50 W/m2
19:23 24.5 °C 22.1 °C 1011.1 hPa Calm   1.1 km/h 86% 0.0 mm 44 W/m2
19:28 24.5 °C 21.8 °C 1011.4 hPa Calm   3.5 km/h 85% 0.0 mm 27 W/m2
19:33 24.5 °C 21.8 °C 1011.4 hPa Calm   5.0 km/h 85% 0.0 mm 27 W/m2
19:38 24.5 °C 21.8 °C 1011.7 hPa Calm   5.0 km/h 85% 0.0 mm 20 W/m2
19:43 24.5 °C 21.8 °C 1011.7 hPa Calm     85% 0.0 mm 12 W/m2
19:48 24.5 °C 21.8 °C 1011.7 hPa Calm     85% 0.0 mm 4 W/m2
19:53 24.4 °C 21.9 °C 1011.7 hPa Calm     86% 0.0 mm 0 W/m2
19:58 24.3 °C 21.8 °C 1011.7 hPa Calm     86% 0.0 mm 0 W/m2
20:03 24.2 °C 21.9 °C 1011.4 hPa Calm     87% 0.0 mm 0 W/m2
20:09 24.1 °C 21.8 °C 1011.4 hPa Calm     87% 0.0 mm 0 W/m2
20:15 24.0 °C 21.9 °C 1011.4 hPa Calm     88% 0.0 mm 0 W/m2
20:20 23.8 °C 21.9 °C 1011.7 hPa Calm   1.1 km/h 89% 0.0 mm 0 W/m2
20:25 23.6 °C 21.7 °C 1011.7 hPa Calm   1.1 km/h 89% 0.0 mm 0 W/m2
20:30 23.6 °C 21.7 °C 1012.1 hPa Calm     89% 0.0 mm 0 W/m2
20:35 23.6 °C 21.7 °C 1012.1 hPa Calm     89% 0.0 mm 0 W/m2
20:40 23.5 °C 21.6 °C 1012.1 hPa Calm     89% 0.0 mm 0 W/m2
20:45 23.4 °C 21.5 °C 1012.1 hPa Calm     89% 0.0 mm 0 W/m2
20:50 23.4 °C 21.7 °C 1012.1 hPa Calm     90% 0.0 mm 0 W/m2
20:55 23.4 °C 21.9 °C 1012.4 hPa Calm   1.1 km/h 91% 0.0 mm 0 W/m2
21:00 23.4 °C 21.9 °C 1012.1 hPa Calm   1.1 km/h 91% 0.0 mm 0 W/m2
21:05 23.3 °C 21.9 °C 1012.4 hPa Calm   1.1 km/h 92% 0.0 mm 0 W/m2
21:10 23.3 °C 21.9 °C 1012.4 hPa Calm     92% 0.0 mm 0 W/m2
21:16 23.2 °C 21.8 °C 1012.4 hPa Calm     92% 0.0 mm 0 W/m2
21:21 23.2 °C 21.8 °C 1012.1 hPa Calm     92% 0.0 mm 0 W/m2
21:26 23.2 °C 21.8 °C 1012.1 hPa Calm     92% 0.0 mm 0 W/m2
21:31 23.1 °C 21.8 °C 1012.4 hPa Calm     92% 0.0 mm 0 W/m2
21:36 23.2 °C 21.8 °C 1012.8 hPa Calm     92% 0.0 mm 0 W/m2
21:41 23.1 °C 21.8 °C 1012.8 hPa Calm     92% 0.0 mm 0 W/m2
21:46 23.0 °C 21.8 °C 1012.8 hPa Calm     93% 0.0 mm 0 W/m2
21:52 23.0 °C 21.8 °C 1012.8 hPa Calm     93% 0.0 mm 0 W/m2
21:58 22.9 °C 21.6 °C 1012.8 hPa Calm     92% 0.0 mm 0 W/m2
22:03 22.8 °C 21.4 °C 1012.8 hPa Calm     92% 0.0 mm 0 W/m2
22:08 22.7 °C 21.3 °C 1012.8 hPa Calm     92% 0.0 mm 0 W/m2
22:13 22.7 °C 21.3 °C 1012.8 hPa Calm     92% 0.0 mm 0 W/m2
22:18 22.6 °C 21.4 °C 1013.1 hPa Calm     93% 0.0 mm 0 W/m2
22:23 22.6 °C 21.4 °C 1012.8 hPa Calm     93% 0.0 mm 0 W/m2
22:28 22.6 °C 21.4 °C 1012.8 hPa Calm     93% 0.0 mm 0 W/m2
22:34 22.5 °C 21.3 °C 1012.8 hPa Calm   1.1 km/h 93% 0.0 mm 0 W/m2
22:39 22.4 °C 21.2 °C 1012.8 hPa Calm   1.1 km/h 93% 0.0 mm 0 W/m2
22:44 22.4 °C 21.2 °C 1012.8 hPa Calm   1.1 km/h 93% 0.0 mm 0 W/m2
22:49 22.3 °C 21.1 °C 1012.8 hPa Calm     93% 0.0 mm 0 W/m2
22:54 22.2 °C 21.2 °C 1012.8 hPa Calm     94% 0.0 mm 0 W/m2
22:59 22.1 °C 21.1 °C 1012.8 hPa Calm     94% 0.0 mm 0 W/m2
23:04 22.1 °C 21.1 °C 1012.8 hPa Calm   1.1 km/h 94% 0.0 mm 0 W/m2
23:09 22.0 °C 21.0 °C 1012.8 hPa Calm   1.1 km/h 94% 0.0 mm 0 W/m2
23:15 21.9 °C 21.1 °C 1012.8 hPa Calm   1.1 km/h 95% 0.0 mm 0 W/m2
23:20 21.9 °C 21.3 °C 1012.8 hPa Calm   3.5 km/h 96% 0.0 mm 0 W/m2
23:25 21.9 °C 21.3 °C 1012.8 hPa Calm   3.5 km/h 96% 0.0 mm 0 W/m2
23:30 21.9 °C 21.3 °C 1012.8 hPa Calm     96% 0.0 mm 0 W/m2
23:35 21.9 °C 21.3 °C 1012.8 hPa Calm     96% 0.0 mm 0 W/m2
23:40 21.9 °C 21.3 °C 1012.8 hPa Calm   1.1 km/h 96% 0.0 mm 0 W/m2
23:45 21.9 °C 21.3 °C 1012.8 hPa Calm   1.1 km/h 96% 0.0 mm 0 W/m2
23:50 21.8 °C 21.2 °C 1012.8 hPa Calm   1.1 km/h 96% 0.0 mm 0 W/m2
23:55 21.7 °C 21.1 °C 1012.8 hPa Calm   1.1 km/h 96% 0.0 mm 0 W/m2
Northern Hawkes Bay. New Zealand Historic Data
Compliments of Weather Underground - 2 mb